sensor_id;sensor_type;location;lat;lon;timestamp;temperature;humidity
76838;DHT22;65797;47.352;8.164;2024-03-08T03:39:25;0.80;1.00
76838;DHT22;65797;47.352;8.164;2024-03-08T03:41:51;0.80;1.00
76838;DHT22;65797;47.352;8.164;2024-03-08T03:44:17;0.80;1.00
76838;DHT22;65797;47.352;8.164;2024-03-08T03:46:43;0.90;1.00
76838;DHT22;65797;47.352;8.164;2024-03-08T03:49:09;0.80;1.00
76838;DHT22;65797;47.352;8.164;2024-03-08T03:51:35;0.90;1.00
76838;DHT22;65797;47.352;8.164;2024-03-08T03:54:01;0.90;1.00
76838;DHT22;65797;47.352;8.164;2024-03-08T03:56:29;0.90;1.00
76838;DHT22;65797;47.352;8.164;2024-03-08T03:58:55;1.00;1.00
76838;DHT22;65797;47.352;8.164;2024-03-08T04:01:22;1.00;1.00
76838;DHT22;65797;47.352;8.164;2024-03-08T04:03:47;1.00;1.00
76838;DHT22;65797;47.352;8.164;2024-03-08T04:06:13;1.00;1.00
76838;DHT22;65797;47.352;8.164;2024-03-08T04:08:40;0.90;1.00
76838;DHT22;65797;47.352;8.164;2024-03-08T04:11:09;0.90;1.00
76838;DHT22;65797;47.352;8.164;2024-03-08T04:13:34;1.00;1.00
76838;DHT22;65797;47.352;8.164;2024-03-08T04:16:02;1.00;1.00
76838;DHT22;65797;47.352;8.164;2024-03-08T04:18:27;1.00;1.00
76838;DHT22;65797;47.352;8.164;2024-03-08T04:20:53;1.00;1.00
76838;DHT22;65797;47.352;8.164;2024-03-08T04:23:19;1.00;1.00
76838;DHT22;65797;47.352;8.164;2024-03-08T04:25:45;1.10;1.00
76838;DHT22;65797;47.352;8.164;2024-03-08T04:28:11;1.10;1.00
76838;DHT22;65797;47.352;8.164;2024-03-08T04:30:38;1.10;1.00
76838;DHT22;65797;47.352;8.164;2024-03-08T04:33:05;1.20;1.00
76838;DHT22;65797;47.352;8.164;2024-03-08T04:35:32;1.20;1.00
76838;DHT22;65797;47.352;8.164;2024-03-08T04:37:58;1.20;1.00
76838;DHT22;65797;47.352;8.164;2024-03-08T04:40:24;1.30;1.00
76838;DHT22;65797;47.352;8.164;2024-03-08T04:42:51;1.30;1.00
76838;DHT22;65797;47.352;8.164;2024-03-08T04:45:17;1.30;1.00
76838;DHT22;65797;47.352;8.164;2024-03-08T06:00:02;2.00;99.90
76838;DHT22;65797;47.352;8.164;2024-03-08T06:07:38;2.10;1.00
76838;DHT22;65797;47.352;8.164;2024-03-08T06:10:07;2.10;1.00
76838;DHT22;65797;47.352;8.164;2024-03-08T06:12:35;2.20;1.00
76838;DHT22;65797;47.352;8.164;2024-03-08T06:15:06;2.20;1.00
76838;DHT22;65797;47.352;8.164;2024-03-08T06:17:32;2.20;1.00
76838;DHT22;65797;47.352;8.164;2024-03-08T06:22:33;2.20;22.80
76838;DHT22;65797;47.352;8.164;2024-03-08T06:24:59;2.20;99.90
76838;DHT22;65797;47.352;8.164;2024-03-08T09:38:01;4.00;99.90
76838;DHT22;65797;47.352;8.164;2024-03-08T09:40:26;4.00;1.00
76838;DHT22;65797;47.352;8.164;2024-03-08T09:42:54;4.10;99.90
76838;DHT22;65797;47.352;8.164;2024-03-08T09:45:42;4.30;99.90
76838;DHT22;65797;47.352;8.164;2024-03-08T09:48:28;4.30;1.00
76838;DHT22;65797;47.352;8.164;2024-03-08T09:50:54;4.40;1.00
76838;DHT22;65797;47.352;8.164;2024-03-08T09:53:22;4.40;1.00
76838;DHT22;65797;47.352;8.164;2024-03-08T09:55:48;4.50;1.00
76838;DHT22;65797;47.352;8.164;2024-03-08T09:58:16;4.50;99.90
76838;DHT22;65797;47.352;8.164;2024-03-08T10:00:48;4.60;99.90
76838;DHT22;65797;47.352;8.164;2024-03-08T10:03:23;4.60;99.90
76838;DHT22;65797;47.352;8.164;2024-03-08T10:05:51;4.60;1.00
76838;DHT22;65797;47.352;8.164;2024-03-08T10:08:17;4.50;1.00
76838;DHT22;65797;47.352;8.164;2024-03-08T10:10:43;4.60;1.00
76838;DHT22;65797;47.352;8.164;2024-03-08T10:13:10;4.50;1.00
76838;DHT22;65797;47.352;8.164;2024-03-08T10:15:39;4.50;99.90
76838;DHT22;65797;47.352;8.164;2024-03-08T10:18:06;4.70;1.00
76838;DHT22;65797;47.352;8.164;2024-03-08T10:20:34;5.00;99.90
76838;DHT22;65797;47.352;8.164;2024-03-08T10:23:02;5.00;99.90
76838;DHT22;65797;47.352;8.164;2024-03-08T10:25:31;5.10;99.90
76838;DHT22;65797;47.352;8.164;2024-03-08T10:27:57;5.00;99.90
76838;DHT22;65797;47.352;8.164;2024-03-08T10:30:23;5.20;99.90
76838;DHT22;65797;47.352;8.164;2024-03-08T10:32:49;5.50;99.90
76838;DHT22;65797;47.352;8.164;2024-03-08T10:35:15;5.50;99.90
76838;DHT22;65797;47.352;8.164;2024-03-08T10:37:46;5.80;99.90
76838;DHT22;65797;47.352;8.164;2024-03-08T10:40:19;6.10;99.90
76838;DHT22;65797;47.352;8.164;2024-03-08T10:56:30;7.10;1.00
76838;DHT22;65797;47.352;8.164;2024-03-08T10:58:56;7.10;1.00
76838;DHT22;65797;47.352;8.164;2024-03-08T11:01:22;7.20;1.00
76838;DHT22;65797;47.352;8.164;2024-03-08T11:03:51;7.60;1.00
76838;DHT22;65797;47.352;8.164;2024-03-08T11:06:30;7.60;1.00
76838;DHT22;65797;47.352;8.164;2024-03-08T11:08:56;7.80;99.90
76838;DHT22;65797;47.352;8.164;2024-03-08T11:11:32;7.50;99.90
76838;DHT22;65797;47.352;8.164;2024-03-08T11:14:01;8.10;99.90
76838;DHT22;65797;47.352;8.164;2024-03-08T11:19:01;8.30;99.90
76838;DHT22;65797;47.352;8.164;2024-03-08T11:21:33;8.50;99.90
76838;DHT22;65797;47.352;8.164;2024-03-08T11:24:06;8.80;99.90
76838;DHT22;65797;47.352;8.164;2024-03-08T11:26:33;8.70;99.90
76838;DHT22;65797;47.352;8.164;2024-03-08T16:43:20;7.30;99.90
76838;DHT22;65797;47.352;8.164;2024-03-08T16:45:48;7.30;99.90
76838;DHT22;65797;47.352;8.164;2024-03-08T16:48:15;7.30;99.90
76838;DHT22;65797;47.352;8.164;2024-03-08T16:50:41;7.20;99.90
76838;DHT22;65797;47.352;8.164;2024-03-08T16:53:07;7.20;99.90
76838;DHT22;65797;47.352;8.164;2024-03-08T16:55:33;7.20;99.90
76838;DHT22;65797;47.352;8.164;2024-03-08T17:00:35;7.10;99.90
76838;DHT22;65797;47.352;8.164;2024-03-08T17:05:36;7.00;99.90
76838;DHT22;65797;47.352;8.164;2024-03-08T17:08:03;7.00;99.90
76838;DHT22;65797;47.352;8.164;2024-03-08T17:10:34;6.90;99.90
76838;DHT22;65797;47.352;8.164;2024-03-08T17:13:01;6.90;99.90
76838;DHT22;65797;47.352;8.164;2024-03-08T17:15:30;6.90;99.90
76838;DHT22;65797;47.352;8.164;2024-03-08T17:17:59;6.90;99.90
76838;DHT22;65797;47.352;8.164;2024-03-08T17:20:31;6.90;99.90
76838;DHT22;65797;47.352;8.164;2024-03-08T17:22:57;6.90;99.90
76838;DHT22;65797;47.352;8.164;2024-03-08T17:25:24;6.80;99.90
76838;DHT22;65797;47.352;8.164;2024-03-08T17:27:55;6.60;1.00
76838;DHT22;65797;47.352;8.164;2024-03-08T17:30:22;6.70;1.00
76838;DHT22;65797;47.352;8.164;2024-03-08T17:32:50;6.70;1.00
76838;DHT22;65797;47.352;8.164;2024-03-08T17:35:19;6.60;1.00
76838;DHT22;65797;47.352;8.164;2024-03-08T17:37:46;6.60;1.00
76838;DHT22;65797;47.352;8.164;2024-03-08T17:40:13;6.60;1.00
76838;DHT22;65797;47.352;8.164;2024-03-08T17:42:44;6.60;1.00
76838;DHT22;65797;47.352;8.164;2024-03-08T17:45:09;6.50;1.00
76838;DHT22;65797;47.352;8.164;2024-03-08T17:47:39;6.50;1.00
76838;DHT22;65797;47.352;8.164;2024-03-08T17:50:05;6.50;1.00
76838;DHT22;65797;47.352;8.164;2024-03-08T17:52:36;6.40;1.00
76838;DHT22;65797;47.352;8.164;2024-03-08T17:55:05;6.50;1.00
76838;DHT22;65797;47.352;8.164;2024-03-08T17:57:35;6.40;1.00
76838;DHT22;65797;47.352;8.164;2024-03-08T18:00:02;6.40;1.00
76838;DHT22;65797;47.352;8.164;2024-03-08T18:02:28;6.40;1.00
76838;DHT22;65797;47.352;8.164;2024-03-08T18:04:54;6.40;1.00
76838;DHT22;65797;47.352;8.164;2024-03-08T18:07:20;6.40;1.00
76838;DHT22;65797;47.352;8.164;2024-03-08T18:09:46;6.30;1.00
76838;DHT22;65797;47.352;8.164;2024-03-08T18:12:11;6.30;1.00
76838;DHT22;65797;47.352;8.164;2024-03-08T18:14:37;6.30;1.00
76838;DHT22;65797;47.352;8.164;2024-03-08T18:17:03;6.30;1.00
76838;DHT22;65797;47.352;8.164;2024-03-08T18:19:31;6.20;1.00
76838;DHT22;65797;47.352;8.164;2024-03-08T18:21:58;6.20;1.00
76838;DHT22;65797;47.352;8.164;2024-03-08T18:24:24;6.20;1.00
76838;DHT22;65797;47.352;8.164;2024-03-08T18:26:51;6.20;1.00
76838;DHT22;65797;47.352;8.164;2024-03-08T18:29:16;6.10;1.00
76838;DHT22;65797;47.352;8.164;2024-03-08T18:31:43;6.10;1.00
76838;DHT22;65797;47.352;8.164;2024-03-08T18:34:09;6.00;1.00
76838;DHT22;65797;47.352;8.164;2024-03-08T18:36:34;6.00;1.00
76838;DHT22;65797;47.352;8.164;2024-03-08T18:39:00;5.90;1.00
76838;DHT22;65797;47.352;8.164;2024-03-08T18:41:29;5.90;1.00
76838;DHT22;65797;47.352;8.164;2024-03-08T18:43:59;5.90;1.00
76838;DHT22;65797;47.352;8.164;2024-03-08T18:46:26;5.90;1.00
76838;DHT22;65797;47.352;8.164;2024-03-08T18:48:53;5.90;1.00
76838;DHT22;65797;47.352;8.164;2024-03-08T18:51:20;5.90;1.00
76838;DHT22;65797;47.352;8.164;2024-03-08T18:53:45;5.70;1.00
76838;DHT22;65797;47.352;8.164;2024-03-08T18:56:11;5.70;1.00
76838;DHT22;65797;47.352;8.164;2024-03-08T18:58:40;5.70;1.00
76838;DHT22;65797;47.352;8.164;2024-03-08T19:01:06;5.80;1.00
76838;DHT22;65797;47.352;8.164;2024-03-08T19:03:32;5.70;1.00
76838;DHT22;65797;47.352;8.164;2024-03-08T19:06:00;5.70;1.00
76838;DHT22;65797;47.352;8.164;2024-03-08T19:08:28;5.70;1.00
76838;DHT22;65797;47.352;8.164;2024-03-08T19:10:55;5.60;1.00
76838;DHT22;65797;47.352;8.164;2024-03-08T19:13:23;5.60;1.00
76838;DHT22;65797;47.352;8.164;2024-03-08T19:15:48;5.50;1.00
76838;DHT22;65797;47.352;8.164;2024-03-08T19:18:17;5.50;1.00
76838;DHT22;65797;47.352;8.164;2024-03-08T19:20:43;5.60;1.00
76838;DHT22;65797;47.352;8.164;2024-03-08T19:23:09;5.50;1.00
76838;DHT22;65797;47.352;8.164;2024-03-08T19:25:37;5.50;1.00
76838;DHT22;65797;47.352;8.164;2024-03-08T19:28:08;5.40;1.00
76838;DHT22;65797;47.352;8.164;2024-03-08T19:30:42;5.40;1.00
76838;DHT22;65797;47.352;8.164;2024-03-08T19:33:08;5.40;1.00
76838;DHT22;65797;47.352;8.164;2024-03-08T19:35:36;5.40;1.00
76838;DHT22;65797;47.352;8.164;2024-03-08T19:38:02;5.40;1.00
76838;DHT22;65797;47.352;8.164;2024-03-08T19:40:29;5.40;1.00
76838;DHT22;65797;47.352;8.164;2024-03-08T19:43:01;5.40;1.00
76838;DHT22;65797;47.352;8.164;2024-03-08T19:45:29;5.50;1.00
76838;DHT22;65797;47.352;8.164;2024-03-08T19:47:56;5.40;98.70
76838;DHT22;65797;47.352;8.164;2024-03-08T19:50:29;5.30;99.90
76838;DHT22;65797;47.352;8.164;2024-03-08T19:52:56;5.30;99.90
76838;DHT22;65797;47.352;8.164;2024-03-08T19:55:29;5.20;99.90
76838;DHT22;65797;47.352;8.164;2024-03-08T19:57:58;5.10;99.90
76838;DHT22;65797;47.352;8.164;2024-03-08T20:00:25;5.10;99.90
76838;DHT22;65797;47.352;8.164;2024-03-08T20:02:55;5.20;99.90
76838;DHT22;65797;47.352;8.164;2024-03-08T20:05:22;5.10;99.90
76838;DHT22;65797;47.352;8.164;2024-03-08T20:07:50;5.10;99.90
76838;DHT22;65797;47.352;8.164;2024-03-08T20:10:26;5.10;99.90
76838;DHT22;65797;47.352;8.164;2024-03-08T20:12:52;5.10;99.90
76838;DHT22;65797;47.352;8.164;2024-03-08T20:15:18;5.00;99.90
76838;DHT22;65797;47.352;8.164;2024-03-08T20:17:46;5.00;99.90
76838;DHT22;65797;47.352;8.164;2024-03-08T20:20:14;5.00;99.90
76838;DHT22;65797;47.352;8.164;2024-03-08T20:22:58;5.00;99.90
76838;DHT22;65797;47.352;8.164;2024-03-08T20:25:25;4.90;99.90
76838;DHT22;65797;47.352;8.164;2024-03-08T20:27:55;4.80;99.90
76838;DHT22;65797;47.352;8.164;2024-03-08T20:30:29;4.80;1.00
76838;DHT22;65797;47.352;8.164;2024-03-08T20:32:58;4.80;99.90
76838;DHT22;65797;47.352;8.164;2024-03-08T20:35:26;4.80;99.90
76838;DHT22;65797;47.352;8.164;2024-03-08T20:37:53;4.70;1.00
76838;DHT22;65797;47.352;8.164;2024-03-08T20:40:21;4.70;1.00
76838;DHT22;65797;47.352;8.164;2024-03-08T20:42:54;4.70;1.00
76838;DHT22;65797;47.352;8.164;2024-03-08T20:45:20;4.60;1.00
76838;DHT22;65797;47.352;8.164;2024-03-08T20:47:46;4.60;1.00
76838;DHT22;65797;47.352;8.164;2024-03-08T20:50:13;4.50;1.00
76838;DHT22;65797;47.352;8.164;2024-03-08T20:52:40;4.50;1.00
76838;DHT22;65797;47.352;8.164;2024-03-08T20:55:08;4.50;1.00
76838;DHT22;65797;47.352;8.164;2024-03-08T20:57:40;4.50;1.00
76838;DHT22;65797;47.352;8.164;2024-03-08T21:00:11;4.40;99.90
76838;DHT22;65797;47.352;8.164;2024-03-08T21:02:48;4.30;1.00
76838;DHT22;65797;47.352;8.164;2024-03-08T21:05:14;4.30;1.00
76838;DHT22;65797;47.352;8.164;2024-03-08T21:07:47;4.20;1.00
76838;DHT22;65797;47.352;8.164;2024-03-08T21:10:13;4.20;1.00
76838;DHT22;65797;47.352;8.164;2024-03-08T21:12:40;4.20;1.00
76838;DHT22;65797;47.352;8.164;2024-03-08T21:15:07;4.20;1.00
76838;DHT22;65797;47.352;8.164;2024-03-08T21:17:37;4.30;16.50
76838;DHT22;65797;47.352;8.164;2024-03-08T21:20:05;4.30;1.00
76838;DHT22;65797;47.352;8.164;2024-03-08T21:22:34;4.30;1.00
76838;DHT22;65797;47.352;8.164;2024-03-08T21:25:00;4.40;1.00
76838;DHT22;65797;47.352;8.164;2024-03-08T21:27:29;4.40;1.00
76838;DHT22;65797;47.352;8.164;2024-03-08T21:29:55;4.30;1.00
76838;DHT22;65797;47.352;8.164;2024-03-08T21:32:22;4.30;1.00
76838;DHT22;65797;47.352;8.164;2024-03-08T21:34:48;4.30;1.00
76838;DHT22;65797;47.352;8.164;2024-03-08T21:37:15;4.20;59.30
76838;DHT22;65797;47.352;8.164;2024-03-08T21:39:40;4.30;99.90
76838;DHT22;65797;47.352;8.164;2024-03-08T21:42:06;4.20;1.00
76838;DHT22;65797;47.352;8.164;2024-03-08T21:44:33;4.20;44.30
76838;DHT22;65797;47.352;8.164;2024-03-08T21:46:59;4.20;1.00
76838;DHT22;65797;47.352;8.164;2024-03-08T21:49:26;4.20;1.00
76838;DHT22;65797;47.352;8.164;2024-03-08T21:51:52;4.20;1.00
76838;DHT22;65797;47.352;8.164;2024-03-08T21:54:18;4.20;1.00
76838;DHT22;65797;47.352;8.164;2024-03-08T21:56:44;4.20;1.00
76838;DHT22;65797;47.352;8.164;2024-03-08T21:59:10;4.10;1.00
76838;DHT22;65797;47.352;8.164;2024-03-08T22:01:35;4.10;1.00
76838;DHT22;65797;47.352;8.164;2024-03-08T22:04:01;4.10;1.00
76838;DHT22;65797;47.352;8.164;2024-03-08T22:06:28;4.10;1.00
76838;DHT22;65797;47.352;8.164;2024-03-08T22:08:54;4.20;29.70
76838;DHT22;65797;47.352;8.164;2024-03-08T22:11:19;4.20;1.00
76838;DHT22;65797;47.352;8.164;2024-03-08T22:13:45;4.20;1.00
76838;DHT22;65797;47.352;8.164;2024-03-08T22:16:11;4.20;1.00
76838;DHT22;65797;47.352;8.164;2024-03-08T22:18:39;4.30;1.00
76838;DHT22;65797;47.352;8.164;2024-03-08T22:21:05;4.20;1.00
76838;DHT22;65797;47.352;8.164;2024-03-08T22:23:32;4.20;1.00
76838;DHT22;65797;47.352;8.164;2024-03-08T22:25:58;4.20;6.10
76838;DHT22;65797;47.352;8.164;2024-03-08T22:28:24;4.20;99.90
76838;DHT22;65797;47.352;8.164;2024-03-08T22:30:53;4.20;99.90
76838;DHT22;65797;47.352;8.164;2024-03-08T22:33:20;4.20;99.90
76838;DHT22;65797;47.352;8.164;2024-03-08T22:35:46;4.20;99.90
76838;DHT22;65797;47.352;8.164;2024-03-08T22:38:12;4.20;99.90
76838;DHT22;65797;47.352;8.164;2024-03-08T22:40:38;4.20;99.90
76838;DHT22;65797;47.352;8.164;2024-03-08T22:43:04;4.20;99.90
76838;DHT22;65797;47.352;8.164;2024-03-08T22:45:32;4.10;1.00
76838;DHT22;65797;47.352;8.164;2024-03-08T22:47:58;4.10;99.90
76838;DHT22;65797;47.352;8.164;2024-03-08T22:50:24;4.20;99.90
76838;DHT22;65797;47.352;8.164;2024-03-08T22:52:51;4.20;1.00
76838;DHT22;65797;47.352;8.164;2024-03-08T22:55:17;4.20;99.90
76838;DHT22;65797;47.352;8.164;2024-03-08T22:57:46;4.20;99.90
76838;DHT22;65797;47.352;8.164;2024-03-08T23:00:14;4.20;99.90
76838;DHT22;65797;47.352;8.164;2024-03-08T23:02:53;4.20;99.90
76838;DHT22;65797;47.352;8.164;2024-03-08T23:05:19;4.20;99.90
76838;DHT22;65797;47.352;8.164;2024-03-08T23:07:47;4.20;80.70
76838;DHT22;65797;47.352;8.164;2024-03-08T23:10:14;4.20;24.90
76838;DHT22;65797;47.352;8.164;2024-03-08T23:12:41;4.20;21.10
76838;DHT22;65797;47.352;8.164;2024-03-08T23:15:10;4.20;60.70
76838;DHT22;65797;47.352;8.164;2024-03-08T23:17:46;4.20;99.90
76838;DHT22;65797;47.352;8.164;2024-03-08T23:20:16;4.10;1.00
76838;DHT22;65797;47.352;8.164;2024-03-08T23:22:43;3.90;1.00
76838;DHT22;65797;47.352;8.164;2024-03-08T23:25:16;3.90;99.90
76838;DHT22;65797;47.352;8.164;2024-03-08T23:27:58;4.00;1.00
76838;DHT22;65797;47.352;8.164;2024-03-08T23:30:26;4.00;1.00
76838;DHT22;65797;47.352;8.164;2024-03-08T23:32:54;4.00;1.00
76838;DHT22;65797;47.352;8.164;2024-03-08T23:35:20;4.10;1.00
76838;DHT22;65797;47.352;8.164;2024-03-08T23:37:47;4.10;1.00
76838;DHT22;65797;47.352;8.164;2024-03-08T23:40:14;4.10;1.00
76838;DHT22;65797;47.352;8.164;2024-03-08T23:42:42;4.10;99.90
76838;DHT22;65797;47.352;8.164;2024-03-08T23:45:12;4.10;99.90
76838;DHT22;65797;47.352;8.164;2024-03-08T23:47:45;4.10;99.90
76838;DHT22;65797;47.352;8.164;2024-03-08T23:50:13;4.10;99.90
76838;DHT22;65797;47.352;8.164;2024-03-08T23:52:42;4.10;1.00
76838;DHT22;65797;47.352;8.164;2024-03-08T23:55:10;4.20;1.00
76838;DHT22;65797;47.352;8.164;2024-03-08T23:57:42;4.20;99.90
